Elkins Park, Pennsylvania
Current Conditions -  °F | °C
As of 1:54 AM on Thursday 23 Oct 2014 (Local Time) from KPNE Reporting Station
Light Rain Light Rain  
Wind Chill: 53°   Ceiling: 2900
Heat Index: 53°   Visibility: 5mi
Dew Point: 47°   Wind: 17mph
Humidity: 80%   Direction: 340°NNW
Pressure: 29.76"   Gusts: 26mph
Location:  40.08°N, 75.13°W
Report Text: KPNE 230554Z 34015G23KT 5SM -RA SCT022 OVC029 12/08 A2976 RMK AO2 SLP077 P0002 60027 T01170083 10122 20117 57013 $
Loading
Personal Weather Stations






























Interactive Weather Map New forecast layout! Learn more

10-Day Weather Forecast

Advertisements
Track Severe Weather on mobile